createdAt,value
2022-12-09T00:00:10.397Z,17.60
2022-12-09T00:05:12.376Z,19.05
2022-12-09T00:10:13.952Z,15.77
2022-12-09T00:15:15.529Z,15.13
2022-12-09T00:20:17.202Z,13.95
2022-12-09T00:25:18.851Z,14.88
2022-12-09T00:30:20.488Z,15.57
2022-12-09T00:35:23.011Z,17.33
2022-12-09T00:40:24.585Z,13.60
2022-12-09T00:45:26.104Z,14.98
2022-12-09T00:50:27.803Z,14.98
2022-12-09T00:55:29.654Z,16.20
2022-12-09T01:00:31.708Z,16.95
2022-12-09T01:05:36.427Z,14.32
2022-12-09T01:10:39.814Z,17.50
2022-12-09T01:15:42.215Z,12.63
2022-12-09T01:20:43.832Z,16.08
2022-12-09T01:25:45.970Z,18.08
2022-12-09T01:30:47.770Z,16.65
2022-12-09T01:35:49.560Z,16.88
2022-12-09T01:40:51.405Z,13.70
2022-12-09T01:45:53.152Z,15.68
2022-12-09T01:50:59.451Z,16.50
2022-12-09T01:56:05.832Z,18.20
2022-12-09T02:01:07.777Z,18.50
2022-12-09T02:06:09.825Z,16.20
2022-12-09T02:11:37.562Z,17.45
2022-12-09T02:17:03.562Z,15.30
2022-12-09T02:22:08.120Z,16.88
2022-12-09T02:27:32.487Z,16.23
2022-12-09T02:32:40.520Z,17.40
2022-12-09T02:38:06.851Z,14.80
2022-12-09T02:43:10.995Z,17.30
2022-12-09T02:48:18.499Z,13.93
2022-12-09T02:53:23.502Z,19.13
2022-12-09T02:58:25.301Z,16.83
2022-12-09T03:03:31.212Z,17.13
2022-12-09T03:08:48.312Z,11.17
2022-12-09T03:19:03.798Z,16.63
2022-12-09T03:24:08.447Z,15.65
2022-12-09T03:29:18.361Z,13.43
2022-12-09T03:34:24.943Z,13.68
2022-12-09T03:39:32.847Z,15.88
2022-12-09T03:44:43.891Z,17.55
2022-12-09T03:49:45.524Z,16.80
2022-12-09T03:54:55.285Z,15.20
2022-12-09T04:00:00.218Z,13.68
2022-12-09T04:05:02.312Z,14.52
2022-12-09T04:10:06.286Z,17.90
2022-12-09T04:15:08.863Z,17.55
2022-12-09T04:20:11.225Z,15.18
2022-12-09T04:25:13.726Z,14.90
2022-12-09T04:30:15.647Z,16.83
2022-12-09T04:35:17.163Z,13.98
2022-12-09T04:40:23.807Z,14.15
2022-12-09T04:45:25.956Z,16.05
2022-12-09T04:50:27.949Z,13.05
2022-12-09T04:55:29.665Z,14.75
2022-12-09T05:00:31.237Z,13.93
2022-12-09T05:05:32.884Z,17.35
2022-12-09T05:10:34.831Z,16.67
2022-12-09T05:15:38.386Z,17.75
2022-12-09T05:20:41.191Z,17.85
2022-12-09T05:25:42.821Z,19.30
2022-12-09T05:30:44.569Z,21.35
2022-12-09T05:35:52.758Z,19.67
2022-12-09T05:40:55.303Z,22.20
2022-12-09T05:45:56.950Z,19.90
2022-12-09T05:51:00.028Z,26.75
2022-12-09T05:56:02.088Z,22.77
2022-12-09T06:01:06.343Z,23.90
2022-12-09T06:06:14.680Z,22.38
2022-12-09T06:11:19.758Z,21.20
2022-12-09T06:16:22.439Z,24.90
2022-12-09T06:21:24.500Z,22.33
2022-12-09T06:26:31.919Z,30.38
2022-12-09T06:31:33.665Z,23.75
2022-12-09T06:36:36.241Z,28.55
2022-12-09T06:41:40.690Z,23.30
2022-12-09T06:46:42.324Z,24.88
2022-12-09T06:51:44.709Z,20.23
2022-12-09T06:56:46.564Z,27.45
2022-12-09T07:01:48.806Z,18.88
2022-12-09T07:06:50.625Z,22.80
2022-12-09T07:11:52.830Z,25.92
2022-12-09T07:16:54.591Z,24.83
2022-12-09T07:21:56.657Z,29.77
2022-12-09T07:27:03.127Z,28.60
2022-12-09T07:32:11.632Z,29.08
2022-12-09T07:37:13.354Z,28.05
2022-12-09T07:42:15.058Z,31.75
2022-12-09T07:47:26.504Z,33.30
2022-12-09T07:52:28.318Z,33.10
2022-12-09T07:57:29.881Z,32.20
2022-12-09T08:02:31.893Z,33.72
2022-12-09T08:07:37.309Z,31.48
2022-12-09T08:12:42.440Z,32.83
2022-12-09T08:17:44.317Z,30.42
2022-12-09T08:22:46.129Z,26.48
2022-12-09T08:27:47.877Z,28.98
2022-12-09T08:32:50.095Z,30.02
2022-12-09T08:37:52.186Z,32.30
2022-12-09T08:42:54.265Z,26.27
2022-12-09T08:47:56.360Z,26.60
2022-12-09T08:52:58.281Z,28.13
2022-12-09T08:58:00.095Z,30.52
2022-12-09T09:03:01.990Z,27.17
2022-12-09T09:08:04.237Z,28.63
2022-12-09T09:13:05.848Z,26.70
2022-12-09T09:18:07.790Z,26.48
2022-12-09T09:23:10.063Z,23.58
2022-12-09T09:28:11.789Z,28.35
2022-12-09T09:33:13.357Z,25.75
2022-12-09T09:38:15.329Z,21.90
2022-12-09T09:43:19.430Z,24.23
2022-12-09T09:48:24.588Z,21.92
2022-12-09T09:53:32.068Z,25.85
2022-12-09T09:58:49.516Z,19.48
2022-12-09T10:04:03.421Z,19.42
2022-12-09T10:09:22.867Z,20.92
2022-12-09T10:15:00.873Z,20.58
2022-12-09T10:20:10.626Z,22.38
2022-12-09T10:25:22.234Z,18.55
2022-12-09T10:30:24.602Z,18.55
2022-12-09T10:35:30.155Z,13.77
2022-12-09T10:40:48.192Z,20.08
2022-12-09T10:51:36.649Z,16.45
2022-12-09T10:57:00.132Z,13.60
2022-12-09T11:02:06.306Z,15.35
2022-12-09T11:07:21.879Z,11.32
2022-12-09T11:12:27.321Z,13.13
2022-12-09T11:17:30.311Z,10.07
2022-12-09T11:22:36.627Z,9.95
2022-12-09T11:27:49.490Z,11.23
2022-12-09T11:32:55.948Z,14.02
2022-12-09T11:38:02.226Z,9.93
2022-12-09T11:43:04.704Z,13.77
2022-12-09T11:48:35.106Z,11.07
2022-12-09T11:53:42.177Z,9.52
2022-12-09T11:59:11.494Z,10.75
2022-12-09T12:04:21.081Z,9.65
2022-12-09T12:09:43.755Z,10.23
2022-12-09T12:14:45.297Z,13.18
2022-12-09T12:19:51.624Z,10.93
2022-12-09T12:25:21.406Z,10.63
2022-12-09T12:30:39.809Z,14.27
2022-12-09T12:35:47.777Z,10.63
2022-12-09T12:41:04.625Z,13.05
2022-12-09T12:46:17.044Z,10.30
2022-12-09T12:51:24.471Z,11.50
2022-12-09T12:56:37.365Z,13.00
2022-12-09T13:01:57.084Z,9.60
2022-12-09T13:07:36.042Z,10.48
2022-12-09T13:12:43.046Z,12.32
2022-12-09T13:17:47.070Z,9.43
2022-12-09T13:23:20.900Z,12.18
2022-12-09T13:28:33.693Z,12.10
2022-12-09T13:33:49.747Z,15.82
2022-12-09T13:38:51.403Z,15.68
2022-12-09T13:43:54.625Z,10.23
2022-12-09T13:48:56.262Z,12.00
2022-12-09T13:53:57.768Z,10.60
2022-12-09T13:59:17.423Z,9.55
2022-12-09T14:04:24.812Z,8.45
2022-12-09T14:09:35.550Z,12.40
2022-12-09T14:14:44.013Z,14.00
2022-12-09T14:19:48.613Z,16.30
2022-12-09T14:24:53.895Z,12.45
2022-12-09T14:30:23.333Z,19.75
2022-12-09T14:35:49.000Z,13.60
2022-12-09T14:40:59.547Z,13.52
2022-12-09T14:46:07.255Z,14.98
2022-12-09T14:51:34.741Z,15.57
2022-12-09T14:56:36.407Z,22.95
2022-12-09T15:01:54.358Z,17.05
2022-12-09T15:07:18.355Z,15.48
2022-12-09T15:12:25.184Z,17.77
2022-12-09T15:22:36.816Z,16.13
2022-12-09T15:27:38.393Z,21.73
2022-12-09T15:32:39.975Z,21.05
2022-12-09T15:37:41.808Z,29.88
2022-12-09T15:42:46.914Z,29.13
2022-12-09T15:48:08.895Z,24.27
2022-12-09T15:53:39.149Z,20.73
2022-12-09T15:58:52.552Z,21.42
2022-12-09T16:03:55.967Z,27.45
2022-12-09T16:08:58.130Z,29.45
2022-12-09T16:14:00.869Z,30.52
2022-12-09T16:19:02.431Z,29.73
2022-12-09T16:24:12.962Z,35.90
2022-12-09T16:29:27.759Z,33.15
2022-12-09T16:34:29.824Z,36.20
2022-12-09T16:39:33.596Z,37.63
2022-12-09T16:44:37.111Z,31.65
2022-12-09T16:49:40.472Z,42.78
2022-12-09T16:54:46.292Z,63.33
2022-12-09T16:59:48.270Z,53.80
2022-12-09T17:04:51.397Z,48.08
2022-12-09T17:09:52.904Z,56.05
2022-12-09T17:14:54.515Z,43.30
2022-12-09T17:19:56.086Z,40.20
2022-12-09T17:24:57.606Z,44.85
2022-12-09T17:29:59.190Z,56.13
2022-12-09T17:35:00.741Z,48.75
2022-12-09T17:40:03.871Z,50.22
2022-12-09T17:45:06.480Z,47.50
2022-12-09T17:50:08.689Z,44.55
2022-12-09T17:55:10.907Z,53.65
2022-12-09T18:00:13.083Z,49.42
2022-12-09T18:05:14.642Z,58.88
2022-12-09T18:10:16.362Z,60.08
2022-12-09T18:15:17.990Z,62.72
2022-12-09T18:20:19.614Z,59.13
2022-12-09T18:25:21.110Z,63.03
2022-12-09T18:30:22.658Z,65.55
2022-12-09T18:35:24.209Z,63.40
2022-12-09T18:40:26.183Z,57.95
2022-12-09T18:45:27.789Z,84.25
2022-12-09T18:50:29.285Z,78.25
2022-12-09T18:55:30.753Z,76.40
2022-12-09T19:00:32.297Z,77.13
2022-12-09T19:05:42.072Z,89.97
2022-12-09T19:10:52.523Z,81.57
2022-12-09T19:15:54.070Z,80.35
2022-12-09T19:20:55.646Z,77.68
2022-12-09T19:25:57.213Z,72.75
2022-12-09T19:30:58.813Z,69.93
2022-12-09T19:36:03.300Z,83.63
2022-12-09T19:41:05.133Z,74.60
2022-12-09T19:46:08.789Z,75.13
2022-12-09T19:51:12.988Z,63.97
2022-12-09T19:56:17.959Z,78.28
2022-12-09T20:01:25.207Z,78.55
2022-12-09T20:06:27.423Z,84.03
2022-12-09T20:11:30.731Z,71.95
2022-12-09T20:16:33.441Z,77.68
2022-12-09T20:21:34.988Z,90.45
2022-12-09T20:26:37.663Z,83.28
2022-12-09T20:31:40.840Z,89.32
2022-12-09T20:36:43.972Z,93.15
2022-12-09T20:41:46.501Z,98.80
2022-12-09T20:46:51.855Z,101.60
2022-12-09T20:51:54.370Z,101.32
2022-12-09T20:56:55.913Z,86.88
2022-12-09T21:01:57.484Z,92.22
2022-12-09T21:06:58.984Z,97.80
2022-12-09T21:12:00.549Z,86.95
2022-12-09T21:17:02.149Z,78.75
2022-12-09T21:22:04.074Z,75.55
2022-12-09T21:27:05.551Z,82.18
2022-12-09T21:32:07.108Z,70.88
2022-12-09T21:37:08.641Z,73.95
2022-12-09T21:42:10.151Z,80.75
2022-12-09T21:47:12.032Z,74.93
2022-12-09T21:52:13.548Z,73.15
2022-12-09T21:57:15.074Z,70.35
2022-12-09T22:02:16.816Z,63.75
2022-12-09T22:07:18.719Z,71.18
2022-12-09T22:12:20.322Z,69.13
2022-12-09T22:17:21.820Z,63.35
2022-12-09T22:22:23.300Z,59.92
2022-12-09T22:27:24.944Z,54.03
2022-12-09T22:32:29.264Z,61.38
2022-12-09T22:37:46.114Z,70.38
2022-12-09T22:42:47.644Z,65.82
2022-12-09T22:47:50.222Z,61.25
2022-12-09T22:52:51.778Z,58.25
2022-12-09T22:57:53.315Z,50.53
2022-12-09T23:02:54.973Z,62.00
2022-12-09T23:07:56.570Z,57.78
2022-12-09T23:12:58.180Z,66.18
2022-12-09T23:18:00.094Z,60.08
2022-12-09T23:23:01.601Z,60.45
2022-12-09T23:28:03.225Z,63.90
2022-12-09T23:33:04.724Z,67.88
2022-12-09T23:38:06.378Z,66.88
2022-12-09T23:43:08.013Z,78.25
2022-12-09T23:48:09.561Z,62.35
2022-12-09T23:53:11.037Z,65.70
2022-12-09T23:58:12.513Z,71.80
